createdAt,value
2018-12-15T00:00:40.756Z,1.00
2018-12-15T00:03:08.366Z,1.00
2018-12-15T00:05:35.947Z,1.00
2018-12-15T00:08:03.499Z,1.00
2018-12-15T00:10:31.058Z,1.00
2018-12-15T00:12:58.677Z,0.90
2018-12-15T00:15:26.319Z,1.00
2018-12-15T00:17:53.916Z,1.00
2018-12-15T00:20:21.511Z,1.00
2018-12-15T00:22:49.063Z,0.90
2018-12-15T00:25:17.548Z,1.00
2018-12-15T00:27:45.121Z,1.00
2018-12-15T00:30:12.679Z,0.90
2018-12-15T00:32:40.251Z,1.00
2018-12-15T00:35:07.848Z,0.90
2018-12-15T00:37:35.435Z,0.90
2018-12-15T00:40:03.270Z,0.90
2018-12-15T00:42:31.362Z,0.90
2018-12-15T00:44:59.014Z,0.90
2018-12-15T00:47:26.554Z,0.90
2018-12-15T00:49:54.197Z,0.80
2018-12-15T00:52:21.790Z,0.80
2018-12-15T00:54:49.349Z,0.90
2018-12-15T00:57:16.895Z,0.90
2018-12-15T00:59:44.479Z,0.90
2018-12-15T01:02:12.438Z,0.90
2018-12-15T01:04:40.008Z,0.90
2018-12-15T01:07:07.598Z,1.00
2018-12-15T01:09:35.148Z,1.00
2018-12-15T01:12:02.692Z,1.00
2018-12-15T01:14:30.283Z,1.00
2018-12-15T01:16:57.832Z,1.00
2018-12-15T01:19:25.376Z,1.00
2018-12-15T01:21:52.962Z,1.10
2018-12-15T01:24:20.507Z,1.00
2018-12-15T01:26:48.106Z,1.00
2018-12-15T01:29:15.719Z,1.00
2018-12-15T01:31:43.273Z,1.00
2018-12-15T01:34:10.850Z,1.00
2018-12-15T01:36:38.440Z,1.10
2018-12-15T01:39:06.554Z,1.00
2018-12-15T01:41:34.115Z,1.00
2018-12-15T01:44:01.704Z,0.90
2018-12-15T01:46:29.244Z,0.90
2018-12-15T01:48:56.799Z,0.90
2018-12-15T01:51:24.410Z,0.90
2018-12-15T01:53:51.956Z,0.80
2018-12-15T01:56:19.558Z,0.80
2018-12-15T01:58:47.163Z,0.90
2018-12-15T02:01:14.704Z,0.90
2018-12-15T02:03:42.259Z,0.90
2018-12-15T02:06:09.842Z,1.00
2018-12-15T02:08:37.392Z,1.00
2018-12-15T02:11:04.983Z,1.00
2018-12-15T02:13:32.525Z,1.00
2018-12-15T02:16:00.073Z,1.00
2018-12-15T02:18:27.647Z,1.00
2018-12-15T02:20:55.199Z,1.10
2018-12-15T02:23:22.776Z,1.10
2018-12-15T02:25:50.318Z,1.10
2018-12-15T02:28:17.904Z,0.90
2018-12-15T02:30:45.440Z,1.10
2018-12-15T02:33:12.988Z,1.10
2018-12-15T02:35:40.585Z,1.10
2018-12-15T02:38:08.133Z,1.10
2018-12-15T02:40:35.678Z,1.00
2018-12-15T02:43:03.263Z,0.90
2018-12-15T02:45:30.969Z,0.90
2018-12-15T02:47:58.557Z,1.00
2018-12-15T02:53:03.855Z,1.00
2018-12-15T02:55:31.816Z,1.00
2018-12-15T02:57:59.401Z,1.00
2018-12-15T03:00:27.132Z,1.00
2018-12-15T03:02:54.706Z,1.00
2018-12-15T03:05:22.267Z,1.00
2018-12-15T03:07:50.562Z,1.00
2018-12-15T03:10:18.112Z,1.00
2018-12-15T03:12:45.651Z,1.00
2018-12-15T03:15:13.298Z,1.00
2018-12-15T03:17:40.842Z,1.00
2018-12-15T03:20:08.390Z,1.00
2018-12-15T03:22:35.980Z,1.00
2018-12-15T03:25:03.781Z,1.00
2018-12-15T03:27:31.319Z,1.00
2018-12-15T03:29:58.935Z,1.00
2018-12-15T03:32:26.509Z,1.00
2018-12-15T03:34:54.088Z,1.00
2018-12-15T03:37:21.682Z,1.00
2018-12-15T03:39:49.242Z,1.00
2018-12-15T03:42:16.811Z,1.00
2018-12-15T03:44:44.395Z,0.90
2018-12-15T03:47:11.939Z,0.90
2018-12-15T03:49:39.475Z,0.90
2018-12-15T03:52:07.068Z,0.90
2018-12-15T03:54:34.614Z,0.90
2018-12-15T03:59:40.508Z,0.80
2018-12-15T04:02:08.216Z,0.90
2018-12-15T04:04:35.889Z,0.90
2018-12-15T04:07:03.504Z,0.90
2018-12-15T04:09:31.070Z,0.90
2018-12-15T04:11:58.656Z,1.00
2018-12-15T04:14:26.208Z,1.00
2018-12-15T04:16:53.820Z,1.00
2018-12-15T04:19:21.397Z,1.00
2018-12-15T04:21:48.936Z,1.10
2018-12-15T04:24:16.603Z,1.10
2018-12-15T04:26:44.194Z,1.00
2018-12-15T04:29:11.730Z,1.10
2018-12-15T04:31:39.283Z,1.00
2018-12-15T04:34:06.874Z,1.00
2018-12-15T04:36:34.410Z,1.10
2018-12-15T04:39:01.947Z,1.00
2018-12-15T04:41:29.544Z,1.00
2018-12-15T04:43:57.272Z,1.00
2018-12-15T04:46:24.841Z,1.00
2018-12-15T04:48:52.530Z,1.00
2018-12-15T04:51:20.066Z,1.10
2018-12-15T04:53:47.607Z,1.10
2018-12-15T04:56:15.208Z,1.10
2018-12-15T04:58:42.771Z,1.00
2018-12-15T05:01:10.327Z,1.00
2018-12-15T05:03:37.913Z,1.00
2018-12-15T05:06:05.474Z,1.00
2018-12-15T05:08:33.014Z,1.00
2018-12-15T05:11:00.630Z,1.00
2018-12-15T05:13:28.203Z,1.00
2018-12-15T05:15:55.743Z,0.90
2018-12-15T05:18:23.327Z,1.00
2018-12-15T05:20:50.956Z,0.90
2018-12-15T05:23:18.500Z,0.80
2018-12-15T05:25:46.087Z,0.80
2018-12-15T05:28:13.652Z,0.80
2018-12-15T05:30:41.194Z,0.80
2018-12-15T05:33:08.783Z,0.90
2018-12-15T05:35:36.327Z,0.90
2018-12-15T05:38:04.046Z,0.90
2018-12-15T05:40:32.005Z,0.90
2018-12-15T05:42:59.564Z,0.90
2018-12-15T05:45:27.323Z,0.90
2018-12-15T05:47:55.178Z,0.90
2018-12-15T05:50:23.065Z,0.90
2018-12-15T05:52:50.627Z,1.00
2018-12-15T05:55:18.215Z,1.10
2018-12-15T05:57:45.806Z,1.00
2018-12-15T06:00:13.474Z,1.00
2018-12-15T06:02:41.356Z,1.00
2018-12-15T06:05:09.681Z,1.00
2018-12-15T06:07:37.226Z,1.00
2018-12-15T06:10:04.956Z,0.90
2018-12-15T06:12:32.494Z,0.90
2018-12-15T06:15:00.034Z,0.90
2018-12-15T06:17:27.618Z,0.80
2018-12-15T06:19:55.811Z,0.80
2018-12-15T06:22:23.375Z,0.80
2018-12-15T06:24:51.027Z,0.80
2018-12-15T06:27:18.588Z,0.80
2018-12-15T06:29:46.142Z,0.80
2018-12-15T06:32:13.804Z,0.80
2018-12-15T06:34:41.363Z,0.70
2018-12-15T06:37:08.923Z,0.70
2018-12-15T06:39:36.517Z,0.70
2018-12-15T06:42:04.118Z,0.70
2018-12-15T06:44:31.658Z,0.70
2018-12-15T06:46:59.298Z,0.80
2018-12-15T06:49:27.115Z,0.90
2018-12-15T06:51:54.677Z,0.90
2018-12-15T06:54:22.330Z,0.90
2018-12-15T06:56:49.877Z,0.90
2018-12-15T06:59:17.439Z,0.90
2018-12-15T07:01:45.030Z,0.90
2018-12-15T07:04:12.683Z,0.80
2018-12-15T07:06:40.223Z,0.80
2018-12-15T07:09:07.798Z,0.80
2018-12-15T07:11:35.425Z,0.80
2018-12-15T07:14:03.024Z,0.80
2018-12-15T07:16:30.611Z,0.80
2018-12-15T07:18:58.152Z,0.80
2018-12-15T07:21:26.610Z,0.80
2018-12-15T07:23:54.206Z,0.80
2018-12-15T07:26:21.760Z,0.90
2018-12-15T07:28:49.318Z,0.90
2018-12-15T07:31:16.903Z,1.00
2018-12-15T07:33:44.440Z,1.00
2018-12-15T07:36:11.981Z,1.00
2018-12-15T07:38:39.574Z,1.00
2018-12-15T07:43:49.708Z,1.00
2018-12-15T07:46:17.246Z,0.90
2018-12-15T07:48:51.167Z,0.90
2018-12-15T07:51:14.420Z,0.80
2018-12-15T07:53:41.970Z,0.80
2018-12-15T07:56:09.522Z,0.80
2018-12-15T07:58:37.106Z,0.80
2018-12-15T08:01:04.651Z,0.70
2018-12-15T08:03:32.195Z,0.80
2018-12-15T08:05:59.771Z,0.80
2018-12-15T08:08:27.599Z,0.80
2018-12-15T08:11:00.890Z,0.80
2018-12-15T08:13:28.599Z,0.90
2018-12-15T08:15:56.922Z,0.90
2018-12-15T08:18:24.501Z,0.80
2018-12-15T08:20:52.102Z,0.80
2018-12-15T08:23:19.678Z,0.80
2018-12-15T08:25:47.294Z,0.90
2018-12-15T08:28:14.925Z,0.90
2018-12-15T08:30:42.466Z,0.80
2018-12-15T08:33:10.049Z,0.80
2018-12-15T08:35:37.590Z,0.80
2018-12-15T08:38:05.142Z,0.80
2018-12-15T08:40:32.731Z,0.90
2018-12-15T08:43:00.324Z,0.80
2018-12-15T08:45:28.236Z,0.80
2018-12-15T08:47:55.878Z,0.80
2018-12-15T08:50:23.489Z,0.80
2018-12-15T08:52:51.042Z,0.90
2018-12-15T08:55:18.732Z,0.90
2018-12-15T08:57:46.291Z,0.90
2018-12-15T09:00:13.900Z,0.90
2018-12-15T09:02:41.487Z,0.90
2018-12-15T09:05:09.041Z,0.90
2018-12-15T09:07:36.581Z,0.90
2018-12-15T09:10:04.335Z,1.00
2018-12-15T09:12:31.887Z,1.00
2018-12-15T09:14:59.498Z,1.10
2018-12-15T09:17:27.109Z,1.10
2018-12-15T09:19:54.689Z,1.10
2018-12-15T09:22:22.494Z,1.20
2018-12-15T09:24:50.074Z,1.20
2018-12-15T09:27:17.799Z,1.30
2018-12-15T09:29:46.125Z,1.30
2018-12-15T09:32:13.709Z,1.30
2018-12-15T09:34:41.307Z,1.30
2018-12-15T09:37:08.857Z,1.30
2018-12-15T09:39:36.457Z,1.30
2018-12-15T09:42:03.991Z,1.30
2018-12-15T09:44:31.620Z,1.30
2018-12-15T09:46:59.880Z,1.20
2018-12-15T09:49:27.414Z,1.30
2018-12-15T09:51:54.954Z,1.20
2018-12-15T09:54:22.601Z,1.20
2018-12-15T09:56:50.406Z,1.20
2018-12-15T09:59:17.961Z,1.10
2018-12-15T10:01:45.559Z,1.20
2018-12-15T10:04:13.238Z,1.20
2018-12-15T10:06:40.783Z,1.30
2018-12-15T10:09:08.466Z,1.30
2018-12-15T10:11:36.060Z,1.30
2018-12-15T10:14:03.656Z,1.30
2018-12-15T10:16:32.231Z,1.40
2018-12-15T10:18:59.786Z,1.40
2018-12-15T10:21:27.391Z,1.40
2018-12-15T10:23:54.979Z,1.30
2018-12-15T10:26:22.522Z,1.20
2018-12-15T10:28:50.069Z,1.20
2018-12-15T10:31:23.159Z,1.10
2018-12-15T10:33:50.698Z,1.10
2018-12-15T10:36:18.260Z,1.20
2018-12-15T10:38:45.846Z,1.30
2018-12-15T10:41:13.393Z,1.30
2018-12-15T10:43:40.935Z,1.20
2018-12-15T10:46:08.532Z,1.30
2018-12-15T10:48:36.349Z,1.30
2018-12-15T10:51:03.918Z,1.30
2018-12-15T10:53:32.457Z,1.30
2018-12-15T10:56:00.012Z,1.30
2018-12-15T10:58:27.559Z,1.20
2018-12-15T11:00:57.011Z,1.20
2018-12-15T11:03:24.557Z,1.30
2018-12-15T11:05:52.116Z,1.30
2018-12-15T11:08:19.699Z,1.30
2018-12-15T11:10:47.255Z,1.20
2018-12-15T11:13:14.838Z,1.20
2018-12-15T11:15:42.386Z,1.20
2018-12-15T11:18:09.950Z,1.20
2018-12-15T11:20:37.546Z,1.20
2018-12-15T11:23:05.095Z,1.20
2018-12-15T11:25:33.561Z,1.30
2018-12-15T11:28:01.158Z,1.30
2018-12-15T11:30:28.696Z,1.20
2018-12-15T11:32:56.325Z,1.20
2018-12-15T11:35:23.978Z,1.20
2018-12-15T11:37:51.519Z,1.30
2018-12-15T11:40:19.073Z,1.30
2018-12-15T11:42:46.665Z,1.40
2018-12-15T11:45:14.203Z,1.40
2018-12-15T11:47:41.746Z,1.50
2018-12-15T11:50:09.447Z,1.60
2018-12-15T11:52:37.040Z,1.50
2018-12-15T11:55:04.715Z,1.60
2018-12-15T11:57:32.353Z,1.60
2018-12-15T11:59:59.931Z,1.60
2018-12-15T12:02:31.823Z,1.50
2018-12-15T12:04:57.109Z,1.50
2018-12-15T12:07:24.695Z,1.50
2018-12-15T12:09:52.240Z,1.50
2018-12-15T12:12:19.786Z,1.50
2018-12-15T12:14:47.356Z,1.50
2018-12-15T12:17:14.974Z,1.50
2018-12-15T12:19:42.539Z,1.50
2018-12-15T12:22:10.152Z,1.40
2018-12-15T12:24:37.722Z,1.40
2018-12-15T12:27:05.288Z,1.50
2018-12-15T12:29:32.874Z,1.50
2018-12-15T12:32:00.411Z,1.70
2018-12-15T12:34:27.989Z,1.50
2018-12-15T12:36:55.573Z,1.40
2018-12-15T12:39:23.110Z,1.50
2018-12-15T12:41:50.647Z,1.50
2018-12-15T12:44:18.223Z,1.40
2018-12-15T12:46:45.762Z,1.40
2018-12-15T12:49:13.304Z,1.30
2018-12-15T12:51:40.896Z,1.30
2018-12-15T12:54:08.492Z,1.40
2018-12-15T12:56:36.033Z,1.40
2018-12-15T12:59:04.607Z,1.30
2018-12-15T13:01:32.158Z,1.30
2018-12-15T13:03:59.694Z,1.20
2018-12-15T13:06:27.260Z,1.20
2018-12-15T13:08:54.799Z,1.20
2018-12-15T13:11:22.379Z,1.20
2018-12-15T13:13:49.914Z,1.10
2018-12-15T13:16:17.538Z,1.10
2018-12-15T13:18:45.196Z,1.00
2018-12-15T13:21:12.734Z,1.00
2018-12-15T13:23:40.292Z,1.00
2018-12-15T13:26:07.885Z,1.00
2018-12-15T13:28:35.420Z,0.90
2018-12-15T13:31:02.969Z,0.90
2018-12-15T13:33:33.101Z,0.90
2018-12-15T13:36:00.887Z,0.90
2018-12-15T13:38:28.423Z,0.90
2018-12-15T13:40:55.987Z,1.00
2018-12-15T13:43:24.115Z,1.00
2018-12-15T13:45:51.690Z,0.90
2018-12-15T13:48:19.231Z,0.90
2018-12-15T13:50:46.778Z,0.90
2018-12-15T13:53:14.424Z,0.90
2018-12-15T13:55:41.973Z,0.90
2018-12-15T13:58:09.551Z,0.90
2018-12-15T14:00:37.094Z,0.80
2018-12-15T14:03:05.295Z,0.80
2018-12-15T14:05:32.866Z,0.80
2018-12-15T14:08:00.407Z,0.80
2018-12-15T14:10:28.047Z,0.90
2018-12-15T14:12:55.638Z,0.80
2018-12-15T14:15:23.239Z,0.80
2018-12-15T14:17:50.831Z,0.80
2018-12-15T14:20:18.432Z,0.80
2018-12-15T14:22:45.975Z,0.80
2018-12-15T14:25:13.513Z,0.80
2018-12-15T14:27:41.145Z,0.80
2018-12-15T14:30:08.795Z,0.70
2018-12-15T14:32:36.328Z,0.80
2018-12-15T14:35:06.075Z,0.80
2018-12-15T14:37:33.619Z,0.70
2018-12-15T14:40:01.150Z,0.70
2018-12-15T14:42:28.732Z,0.70
2018-12-15T14:44:56.269Z,0.80
2018-12-15T14:47:23.826Z,0.70
2018-12-15T14:49:55.167Z,0.80
2018-12-15T14:52:22.945Z,0.80
2018-12-15T14:54:50.983Z,0.70
2018-12-15T14:57:20.483Z,0.70
2018-12-15T14:59:48.027Z,0.70
2018-12-15T15:02:15.603Z,0.80
2018-12-15T15:04:43.144Z,1.00
2018-12-15T15:07:10.724Z,1.00
2018-12-15T15:09:38.262Z,1.00
2018-12-15T15:12:06.180Z,0.90
2018-12-15T15:14:33.776Z,0.90
2018-12-15T15:17:01.317Z,0.80
2018-12-15T15:19:28.867Z,0.80
2018-12-15T15:21:56.526Z,0.70
2018-12-15T15:24:24.063Z,0.70
2018-12-15T15:26:51.603Z,0.80
2018-12-15T15:29:19.176Z,0.80
2018-12-15T15:31:46.706Z,0.90
2018-12-15T15:34:14.462Z,1.00
2018-12-15T15:36:42.056Z,1.10
2018-12-15T15:39:09.604Z,1.00
2018-12-15T15:41:37.143Z,1.00
2018-12-15T15:44:04.866Z,1.00
2018-12-15T15:46:32.466Z,1.00
2018-12-15T15:49:00.007Z,1.00
2018-12-15T15:51:27.641Z,1.00
2018-12-15T15:53:55.191Z,1.00
2018-12-15T15:56:22.735Z,1.20
2018-12-15T15:58:50.323Z,1.20
2018-12-15T16:01:17.898Z,1.20
2018-12-15T16:03:45.484Z,1.10
2018-12-15T16:06:13.018Z,1.10
2018-12-15T16:08:40.552Z,1.10
2018-12-15T16:11:08.201Z,1.30
2018-12-15T16:13:36.663Z,1.30
2018-12-15T16:16:08.203Z,1.30
2018-12-15T16:18:36.789Z,1.10
2018-12-15T16:21:04.364Z,0.90
2018-12-15T16:23:32.044Z,0.80
2018-12-15T16:25:59.673Z,0.70
2018-12-15T16:28:27.271Z,0.70
2018-12-15T16:30:54.914Z,0.60
2018-12-15T16:33:22.455Z,0.70
2018-12-15T16:35:50.014Z,0.60
2018-12-15T16:38:17.607Z,0.70
2018-12-15T16:43:28.263Z,0.60
2018-12-15T16:45:55.812Z,0.50
2018-12-15T16:48:23.353Z,0.50
2018-12-15T16:50:50.914Z,0.50
2018-12-15T16:53:18.472Z,0.50
2018-12-15T16:55:46.053Z,0.50
2018-12-15T16:58:13.596Z,0.40
2018-12-15T17:00:41.139Z,0.50
2018-12-15T17:03:09.339Z,0.60
2018-12-15T17:05:38.024Z,0.80
2018-12-15T17:08:05.648Z,0.90
2018-12-15T17:10:33.294Z,1.10
2018-12-15T17:13:00.835Z,0.90
2018-12-15T17:15:28.370Z,0.80
2018-12-15T17:17:55.947Z,0.70
2018-12-15T17:20:23.486Z,0.60
2018-12-15T17:22:51.032Z,0.60
2018-12-15T17:25:18.623Z,0.60
2018-12-15T17:27:46.169Z,0.60
2018-12-15T17:30:13.853Z,0.50
2018-12-15T17:32:41.454Z,0.50
2018-12-15T17:35:09.136Z,0.50
2018-12-15T17:37:36.670Z,0.50
2018-12-15T17:40:06.391Z,0.50
2018-12-15T17:42:33.938Z,0.50
2018-12-15T17:45:01.479Z,0.50
2018-12-15T17:47:29.125Z,0.50
2018-12-15T17:49:56.662Z,0.50
2018-12-15T17:52:24.275Z,0.50
2018-12-15T17:54:51.839Z,0.40
2018-12-15T17:57:19.386Z,0.40
2018-12-15T17:59:47.661Z,0.40
2018-12-15T18:02:15.230Z,0.40
2018-12-15T18:04:42.783Z,0.40
2018-12-15T18:07:10.371Z,0.40
2018-12-15T18:09:38.451Z,0.30
2018-12-15T18:12:06.000Z,0.30
2018-12-15T18:14:33.594Z,0.40
2018-12-15T18:17:01.130Z,0.40
2018-12-15T18:19:28.848Z,0.40
2018-12-15T18:21:56.431Z,0.40
2018-12-15T18:24:23.977Z,0.40
2018-12-15T18:26:51.527Z,0.50
2018-12-15T18:29:19.123Z,0.50
2018-12-15T18:31:46.672Z,0.50
2018-12-15T18:34:14.222Z,0.50
2018-12-15T18:36:41.835Z,0.50
2018-12-15T18:39:09.398Z,0.60
2018-12-15T18:41:36.947Z,0.60
2018-12-15T18:44:04.543Z,0.60
2018-12-15T18:46:32.129Z,0.50
2018-12-15T18:48:59.679Z,0.50
2018-12-15T18:51:27.296Z,0.50
2018-12-15T18:53:54.890Z,0.50
2018-12-15T18:56:22.432Z,0.50
2018-12-15T18:58:50.359Z,0.50
2018-12-15T19:01:17.961Z,0.40
2018-12-15T19:03:45.567Z,0.40
2018-12-15T19:06:13.103Z,0.40
2018-12-15T19:08:41.716Z,0.40
2018-12-15T19:11:09.745Z,0.50
2018-12-15T19:13:37.391Z,0.40
2018-12-15T19:16:05.097Z,0.30
2018-12-15T19:18:32.656Z,0.40
2018-12-15T19:21:00.236Z,0.40
2018-12-15T19:23:27.950Z,0.40
2018-12-15T19:25:55.550Z,0.40
2018-12-15T19:28:23.105Z,0.50
2018-12-15T19:30:50.699Z,0.50
2018-12-15T19:33:18.262Z,0.50
2018-12-15T19:35:45.886Z,0.50
2018-12-15T19:38:13.478Z,0.50
2018-12-15T19:40:41.060Z,0.50
2018-12-15T19:43:08.629Z,0.50
2018-12-15T19:45:36.219Z,0.60
2018-12-15T19:48:03.767Z,0.80
2018-12-15T19:50:31.321Z,0.90
2018-12-15T19:52:58.910Z,0.90
2018-12-15T19:55:26.487Z,1.00
2018-12-15T19:57:54.052Z,1.00
2018-12-15T20:00:21.674Z,1.00
2018-12-15T20:02:49.226Z,0.90
2018-12-15T20:05:16.780Z,0.90
2018-12-15T20:07:44.363Z,0.80
2018-12-15T20:10:13.440Z,0.80
2018-12-15T20:12:40.991Z,0.70
2018-12-15T20:15:08.694Z,0.70
2018-12-15T20:17:36.251Z,0.60
2018-12-15T20:20:05.238Z,0.60
2018-12-15T20:22:32.898Z,0.60
2018-12-15T20:25:00.439Z,0.60
2018-12-15T20:27:28.000Z,0.60
2018-12-15T20:29:55.596Z,0.70
2018-12-15T20:32:23.228Z,0.70
2018-12-15T20:34:50.787Z,0.60
2018-12-15T20:37:18.379Z,0.70
2018-12-15T20:39:45.974Z,0.70
2018-12-15T20:42:13.967Z,0.70
2018-12-15T20:44:41.892Z,0.60
2018-12-15T20:47:09.815Z,0.60
2018-12-15T20:49:37.395Z,0.60
2018-12-15T20:52:05.073Z,0.60
2018-12-15T20:54:32.639Z,0.60
2018-12-15T20:57:00.191Z,0.60
2018-12-15T20:59:27.797Z,0.60
2018-12-15T21:01:55.342Z,0.60
2018-12-15T21:04:22.958Z,0.60
2018-12-15T21:06:50.553Z,0.60
2018-12-15T21:09:18.102Z,0.70
2018-12-15T21:11:45.653Z,0.60
2018-12-15T21:14:13.639Z,0.60
2018-12-15T21:16:41.209Z,0.60
2018-12-15T21:19:08.871Z,0.60
2018-12-15T21:21:36.463Z,0.60
2018-12-15T21:24:04.012Z,0.70
2018-12-15T21:26:31.570Z,0.70
2018-12-15T21:28:59.162Z,0.60
2018-12-15T21:31:26.703Z,0.60
2018-12-15T21:33:54.254Z,0.60
2018-12-15T21:36:21.850Z,0.60
2018-12-15T21:38:49.393Z,0.60
2018-12-15T21:41:16.954Z,0.50
2018-12-15T21:43:44.573Z,0.50
2018-12-15T21:46:12.132Z,0.60
2018-12-15T21:48:39.677Z,0.50
2018-12-15T21:51:07.293Z,0.50
2018-12-15T21:53:34.846Z,0.50
2018-12-15T21:56:02.411Z,0.50
2018-12-15T21:58:30.009Z,0.50
2018-12-15T22:00:57.573Z,0.50
2018-12-15T22:03:25.117Z,0.50
2018-12-15T22:05:52.713Z,0.50
2018-12-15T22:08:20.266Z,0.40
2018-12-15T22:10:47.808Z,0.40
2018-12-15T22:13:15.420Z,0.40
2018-12-15T22:15:42.954Z,0.30
2018-12-15T22:18:10.496Z,0.30
2018-12-15T22:20:38.246Z,0.30
2018-12-15T22:23:05.788Z,0.20
2018-12-15T22:25:33.351Z,0.20
2018-12-15T22:28:00.926Z,0.20
2018-12-15T22:30:28.467Z,0.10
2018-12-15T22:32:56.030Z,0.10
2018-12-15T22:35:23.634Z,0.10
2018-12-15T22:37:51.179Z,0.10
2018-12-15T22:40:18.726Z,0.00
2018-12-15T22:42:46.308Z,0.00
2018-12-15T22:45:13.946Z,0.00
2018-12-15T22:47:41.596Z,0.00
2018-12-15T22:50:09.378Z,-0.10
2018-12-15T22:52:36.923Z,-0.10
2018-12-15T22:55:05.022Z,-0.10
2018-12-15T22:57:32.628Z,-0.10
2018-12-15T23:00:00.195Z,-0.10
2018-12-15T23:02:27.779Z,-0.10
2018-12-15T23:04:55.460Z,-0.10
2018-12-15T23:07:23.016Z,-0.10
2018-12-15T23:09:50.609Z,-0.20
2018-12-15T23:12:18.195Z,-0.20
2018-12-15T23:14:45.745Z,-0.20
2018-12-15T23:17:13.291Z,-0.30
2018-12-15T23:19:40.878Z,-0.30
2018-12-15T23:22:08.496Z,-0.40
2018-12-15T23:24:36.039Z,-0.40
2018-12-15T23:27:03.756Z,-0.40
2018-12-15T23:29:31.292Z,-0.40
2018-12-15T23:31:58.835Z,-0.50
2018-12-15T23:34:26.430Z,-0.50
2018-12-15T23:36:53.978Z,-0.50
2018-12-15T23:39:21.519Z,-0.60
2018-12-15T23:41:49.101Z,-0.60
2018-12-15T23:44:16.653Z,-0.60
2018-12-15T23:46:44.185Z,-0.60
2018-12-15T23:49:11.805Z,-0.50
2018-12-15T23:51:39.352Z,-0.60
2018-12-15T23:54:06.907Z,-0.60
2018-12-15T23:56:34.494Z,-0.60
2018-12-15T23:59:02.053Z,-0.60
